createdAt,value
2023-03-23T15:58:21.112Z,13.43
2023-03-23T16:00:49.272Z,13.49
2023-03-23T16:03:27.461Z,13.47
2023-03-23T16:05:56.279Z,13.47
2023-03-23T16:08:23.151Z,13.55
2023-03-23T16:10:50.646Z,13.53
2023-03-23T16:13:18.309Z,13.55
2023-03-23T16:15:47.054Z,13.54
2023-03-23T16:18:22.798Z,13.56
2023-03-23T16:20:50.063Z,13.54
2023-03-23T16:23:16.898Z,13.50
2023-03-23T16:25:43.828Z,13.44
2023-03-23T16:28:13.097Z,13.38
2023-03-23T16:30:40.781Z,13.36
2023-03-23T16:33:07.347Z,13.35
2023-03-23T16:35:34.363Z,13.34
2023-03-23T16:38:07.144Z,13.34
2023-03-23T16:40:35.164Z,13.34
2023-03-23T16:43:01.632Z,13.33
2023-03-23T16:45:35.648Z,13.33
2023-03-23T16:48:02.291Z,13.28
2023-03-23T16:50:30.017Z,13.23
2023-03-23T16:52:57.251Z,13.18
2023-03-23T16:55:26.082Z,13.15
2023-03-23T16:57:58.207Z,13.15
2023-03-23T17:00:32.751Z,13.14
2023-03-23T17:02:59.630Z,13.15
2023-03-23T17:05:28.459Z,13.11
2023-03-23T17:07:56.038Z,13.11
2023-03-23T17:10:25.239Z,13.10
2023-03-23T17:12:51.872Z,13.05
2023-03-23T17:15:18.997Z,13.04
2023-03-23T17:17:45.585Z,13.08
2023-03-23T17:20:13.364Z,13.15
2023-03-23T17:22:40.569Z,13.24
2023-03-23T17:25:08.593Z,13.24
2023-03-23T17:27:39.118Z,13.19
2023-03-23T17:30:07.412Z,13.17
2023-03-23T17:32:34.324Z,13.15
2023-03-23T17:35:01.640Z,13.16
2023-03-23T17:37:28.120Z,13.14
2023-03-23T17:39:54.539Z,13.09
2023-03-23T17:42:21.068Z,13.14
2023-03-23T17:44:47.539Z,13.13
2023-03-23T17:47:14.032Z,13.13
2023-03-23T17:49:40.539Z,13.06
2023-03-23T17:52:07.161Z,12.99
2023-03-23T17:54:33.743Z,12.93
2023-03-23T17:57:03.805Z,12.92
2023-03-23T17:59:30.910Z,12.98
2023-03-23T18:01:57.886Z,12.96
2023-03-23T18:04:26.854Z,12.89
2023-03-23T18:06:57.568Z,12.87
2023-03-23T18:09:25.397Z,12.86
2023-03-23T18:11:52.981Z,12.79
2023-03-23T18:14:20.727Z,12.76
2023-03-23T18:16:48.036Z,12.73
2023-03-23T18:19:14.979Z,12.70
2023-03-23T18:21:42.893Z,12.69
2023-03-23T18:24:10.800Z,12.64
2023-03-23T18:26:37.349Z,12.58
2023-03-23T18:29:03.970Z,12.54
2023-03-23T18:31:30.694Z,12.50
2023-03-23T18:33:57.246Z,12.51
2023-03-23T18:36:25.856Z,12.51
2023-03-23T18:38:56.340Z,12.51
2023-03-23T18:41:23.328Z,12.51
2023-03-23T18:43:49.907Z,12.52
2023-03-23T18:46:18.846Z,12.50
2023-03-23T18:48:45.422Z,12.48
2023-03-23T18:51:12.469Z,12.49
2023-03-23T18:53:39.225Z,12.48
2023-03-23T18:56:18.189Z,12.40
2023-03-23T18:58:45.622Z,12.35
2023-03-23T19:01:16.180Z,12.33
2023-03-23T19:03:43.452Z,12.35
2023-03-23T19:06:20.272Z,12.36
2023-03-23T19:08:47.986Z,12.38
2023-03-23T19:11:28.466Z,12.34
2023-03-23T19:14:02.408Z,12.35
2023-03-23T19:16:32.141Z,12.32
2023-03-23T19:19:01.341Z,12.35
2023-03-23T19:21:29.837Z,12.35
2023-03-23T19:23:58.102Z,12.34
2023-03-23T19:26:29.935Z,12.39
2023-03-23T19:31:26.051Z,12.36
2023-03-23T19:33:53.441Z,12.40
2023-03-23T19:36:22.470Z,12.40
2023-03-23T19:38:50.665Z,12.43
2023-03-23T19:41:19.000Z,12.49
2023-03-23T19:43:46.017Z,12.55
2023-03-23T19:46:14.034Z,12.53
2023-03-23T19:48:40.590Z,12.51
2023-03-23T19:51:09.169Z,12.49
2023-03-23T19:53:35.875Z,12.52
2023-03-23T19:56:03.766Z,12.57
2023-03-23T19:58:32.349Z,12.59
2023-03-23T20:01:00.672Z,12.57
2023-03-23T20:03:27.183Z,12.55
2023-03-23T20:06:01.274Z,12.55
2023-03-23T20:08:27.986Z,12.55
2023-03-23T20:11:03.196Z,12.63
2023-03-23T20:13:30.006Z,12.66
2023-03-23T20:15:59.715Z,12.63
2023-03-23T20:18:29.188Z,12.66
2023-03-23T20:21:06.814Z,12.70
2023-03-23T20:23:34.664Z,12.68
2023-03-23T20:26:06.798Z,12.66
2023-03-23T20:28:33.782Z,12.64
2023-03-23T20:31:19.812Z,12.67
2023-03-23T20:34:00.885Z,12.63
2023-03-23T20:36:42.154Z,12.68
2023-03-23T20:39:14.575Z,12.69
2023-03-23T20:41:42.015Z,12.64
2023-03-23T20:44:13.865Z,12.66
2023-03-23T20:46:41.285Z,12.66
2023-03-23T20:49:08.321Z,12.68
2023-03-23T20:51:35.012Z,12.66
2023-03-23T20:54:02.112Z,12.64
2023-03-23T20:56:28.777Z,12.61
2023-03-23T20:58:55.947Z,12.63
2023-03-23T21:01:22.695Z,12.69
2023-03-23T21:03:54.145Z,12.73
2023-03-23T21:06:21.573Z,12.69
2023-03-23T21:08:48.410Z,12.66
2023-03-23T21:11:19.951Z,12.68
2023-03-23T21:13:47.177Z,12.66
2023-03-23T21:16:13.686Z,12.63
2023-03-23T21:18:41.820Z,12.59
2023-03-23T21:21:11.131Z,12.51
2023-03-23T21:23:46.973Z,12.48
2023-03-23T21:26:18.704Z,12.41
2023-03-23T21:28:46.649Z,12.36
2023-03-23T21:31:14.969Z,12.31
2023-03-23T21:33:41.565Z,12.29
2023-03-23T21:36:08.134Z,12.25
2023-03-23T21:38:34.955Z,12.25
2023-03-23T21:41:08.061Z,12.26
2023-03-23T21:43:34.980Z,12.28
2023-03-23T21:46:04.735Z,12.28
2023-03-23T21:48:32.945Z,12.30
2023-03-23T21:51:08.612Z,12.27
2023-03-23T21:53:37.089Z,12.25
2023-03-23T21:56:06.142Z,12.23
2023-03-23T21:58:33.257Z,12.23
2023-03-23T22:01:01.098Z,12.24
2023-03-23T22:03:32.276Z,12.23
2023-03-23T22:06:06.703Z,12.26
2023-03-23T22:08:33.270Z,12.25
2023-03-23T22:11:02.556Z,12.26
2023-03-23T22:13:31.099Z,12.28
2023-03-23T22:16:03.605Z,12.26
2023-03-23T22:18:30.544Z,12.25
2023-03-23T22:20:59.076Z,12.23
2023-03-23T22:23:26.744Z,12.20
2023-03-23T22:25:53.942Z,12.20
2023-03-23T22:28:20.557Z,12.14
2023-03-23T22:30:47.624Z,12.10
2023-03-23T22:33:14.834Z,12.08
2023-03-23T22:35:41.338Z,12.03
2023-03-23T22:38:07.860Z,12.00
2023-03-23T22:40:34.846Z,11.97
2023-03-23T22:43:01.387Z,11.95
2023-03-23T22:45:28.097Z,11.94
2023-03-23T22:47:56.248Z,11.92
2023-03-23T22:50:24.209Z,11.89
2023-03-23T22:52:50.905Z,11.88
2023-03-23T22:55:17.562Z,11.86
2023-03-23T22:57:44.089Z,11.84
2023-03-23T23:00:14.740Z,11.82
2023-03-23T23:02:43.205Z,11.79
2023-03-23T23:05:13.742Z,11.79
2023-03-23T23:07:40.525Z,11.78
2023-03-23T23:10:07.465Z,11.77
2023-03-23T23:12:35.204Z,11.74
2023-03-23T23:15:05.770Z,11.76
2023-03-23T23:17:32.740Z,11.75
2023-03-23T23:20:00.081Z,11.73
2023-03-23T23:22:26.835Z,11.72
2023-03-23T23:24:53.342Z,11.70
2023-03-23T23:27:19.870Z,11.70
2023-03-23T23:29:46.355Z,11.68
2023-03-23T23:32:13.078Z,11.67
2023-03-23T23:34:39.794Z,11.67
2023-03-23T23:37:06.992Z,11.67
2023-03-23T23:39:38.122Z,11.67
2023-03-23T23:42:05.807Z,11.65
2023-03-23T23:44:32.523Z,11.63
2023-03-23T23:46:59.193Z,11.64
2023-03-23T23:49:28.487Z,11.62
2023-03-23T23:51:56.352Z,11.61
2023-03-23T23:54:23.015Z,11.61
2023-03-23T23:56:50.882Z,11.60
2023-03-23T23:59:17.491Z,11.59
